Time;durP1;ratioP1;P1;durP2;ratioP2;P2;SDS_P1;SDS_P2;PMS_P1;PMS_P2;Temp;Humidity;BMP_temperature;BMP_pressure;BME280_temperature;BME280_humidity;BME280_pressure;Samples;Min_cycle;Max_cycle;Signal;HPM_P1;HPM_P2
2022/03/06 00:00:17;;;;;;;19.02;8.93;;;;;;;-2.94;100.00;96983.16;4919961;28;20094;-74
2022/03/06 00:02:43;;;;;;;17.83;7.65;;;;;;;-2.97;100.00;96983.44;4940650;28;20162;-74
2022/03/06 00:05:09;;;;;;;18.33;8.23;;;;;;;-2.98;100.00;96989.66;4953351;28;20594;-75
2022/03/06 00:07:34;;;;;;;19.73;8.65;;;;;;;-2.99;100.00;96988.03;4970482;28;20037;-73
2022/03/06 00:10:00;;;;;;;40.38;15.48;;;;;;;-2.97;100.00;96983.44;4986374;28;20043;-74
2022/03/06 00:12:26;;;;;;;56.95;20.27;;;;;;;-2.98;100.00;96987.03;4953906;28;20078;-74
2022/03/06 00:14:51;;;;;;;29.73;11.75;;;;;;;-2.93;100.00;96992.66;4936257;28;20831;-74
2022/03/06 00:17:17;;;;;;;26.90;9.85;;;;;;;-2.99;100.00;96992.44;4937840;28;20027;-74
2022/03/06 00:19:43;;;;;;;18.73;8.70;;;;;;;-2.96;100.00;96992.94;4937818;28;20043;-73
2022/03/06 00:22:08;;;;;;;18.70;8.13;;;;;;;-3.14;100.00;96992.13;4938753;28;20040;-73
2022/03/06 00:24:34;;;;;;;21.17;7.63;;;;;;;-3.12;100.00;96992.81;4939407;28;20565;-74
2022/03/06 00:27:01;;;;;;;18.50;9.30;;;;;;;-3.10;100.00;96993.50;4969242;28;20587;-74
2022/03/06 00:29:26;;;;;;;18.45;7.80;;;;;;;-3.15;100.00;97000.97;4938425;28;20039;-74
2022/03/06 00:31:51;;;;;;;17.27;8.23;;;;;;;-3.17;100.00;96995.06;4938348;28;20070;-73
2022/03/06 00:34:35;;;;;;;19.41;8.93;;;;;;;-3.27;100.00;97000.34;4450642;28;10002416;-74
2022/03/06 00:37:01;;;;;;;19.00;8.75;;;;;;;-3.31;100.00;96996.41;1361404;28;10002552;-73
2022/03/06 00:39:26;;;;;;;22.35;9.57;;;;;;;-3.34;100.00;97001.13;4953366;28;20027;-73
2022/03/06 00:41:52;;;;;;;18.33;8.55;;;;;;;-3.44;100.00;96995.94;4939313;28;20042;-75
2022/03/06 00:44:17;;;;;;;18.85;8.52;;;;;;;-3.40;100.00;97002.53;4939480;28;20717;-73
2022/03/06 00:46:43;;;;;;;19.70;8.15;;;;;;;-3.44;100.00;96995.94;4938596;28;20608;-73
2022/03/06 00:49:08;;;;;;;20.75;8.85;;;;;;;-3.49;100.00;96998.19;4967427;28;20806;-73
2022/03/06 00:51:34;;;;;;;20.60;8.93;;;;;;;-3.50;100.00;96993.91;4969756;28;20037;-73
2022/03/06 00:53:59;;;;;;;18.48;8.60;;;;;;;-3.43;100.00;96997.56;4938020;28;20047;-73
2022/03/06 00:56:25;;;;;;;20.10;8.93;;;;;;;-3.37;100.00;96995.19;4939776;28;20191;-73
2022/03/06 00:58:50;;;;;;;21.45;8.95;;;;;;;-3.36;100.00;96999.47;4967601;28;20037;-73
2022/03/06 01:01:16;;;;;;;20.60;8.65;;;;;;;-3.30;100.00;96995.44;4968252;28;20055;-73
2022/03/06 01:03:41;;;;;;;19.65;7.35;;;;;;;-3.26;100.00;96995.97;4937254;28;20039;-73
2022/03/06 01:06:07;;;;;;;20.08;9.20;;;;;;;-3.24;100.00;96989.59;4938466;28;20046;-75
2022/03/06 01:08:33;;;;;;;17.50;7.82;;;;;;;-3.22;100.00;96997.31;4973095;28;20038;-76
2022/03/06 01:10:58;;;;;;;16.65;7.90;;;;;;;-3.23;100.00;96991.25;4944009;28;20039;-75
2022/03/06 01:13:24;;;;;;;22.58;8.75;;;;;;;-3.16;100.00;96989.69;4940461;28;20035;-76
2022/03/06 01:15:49;;;;;;;21.52;8.18;;;;;;;-3.29;100.00;96994.44;4972497;28;20051;-76
2022/03/06 01:18:15;;;;;;;21.77;8.75;;;;;;;-3.34;100.00;96994.09;4937697;28;20047;-76
2022/03/06 01:20:41;;;;;;;20.15;8.80;;;;;;;-3.34;100.00;96993.28;4954792;28;20796;-76
2022/03/06 01:23:08;;;;;;;21.58;8.82;;;;;;;-3.37;100.00;96995.19;4955315;28;20051;-76
2022/03/06 01:25:34;;;;;;;23.17;8.82;;;;;;;-3.37;100.00;97004.84;4940826;28;20038;-75
2022/03/06 01:28:01;;;;;;;18.75;8.40;;;;;;;-3.37;100.00;96999.59;4938595;28;20194;-75
2022/03/06 01:30:27;;;;;;;17.77;7.93;;;;;;;-3.40;100.00;96997.31;4936397;28;20038;-75
2022/03/06 01:32:53;;;;;;;14.77;7.10;;;;;;;-3.41;100.00;96999.09;4935757;28;20039;-75
2022/03/06 01:35:19;;;;;;;22.98;8.45;;;;;;;-3.46;100.00;97000.50;4939963;28;20031;-75
2022/03/06 01:37:46;;;;;;;18.23;8.20;;;;;;;-3.47;100.00;96991.00;4969432;28;20054;-75
2022/03/06 01:40:12;;;;;;;15.93;7.78;;;;;;;-3.43;100.00;96997.56;4966722;28;20035;-75
2022/03/06 01:42:40;;;;;;;15.40;7.10;;;;;;;-3.43;100.00;96992.34;4939265;29;20037;-75
2022/03/06 01:45:08;;;;;;;15.52;7.65;;;;;;;-3.40;100.00;97005.97;4937288;28;20440;-75
2022/03/06 01:47:45;;;;;;;15.07;7.25;;;;;;;-3.38;100.00;97000.59;4937911;28;20663;-75
2022/03/06 01:50:20;;;;;;;15.10;7.10;;;;;;;-3.42;100.00;96994.84;4937063;28;20035;-75
2022/03/06 01:52:48;;;;;;;14.20;7.43;;;;;;;-3.43;100.00;96985.31;4968425;28;20980;-76
2022/03/06 01:55:16;;;;;;;17.00;6.80;;;;;;;-3.45;100.00;96992.50;4936521;28;20031;-77
2022/03/06 01:57:42;;;;;;;16.60;7.88;;;;;;;-3.61;100.00;96991.50;4938141;28;20093;-76
2022/03/06 02:00:12;;;;;;;15.02;7.00;;;;;;;-3.59;100.00;96989.56;4934532;28;20062;-76
2022/03/06 02:02:37;;;;;;;14.48;7.13;;;;;;;-3.68;100.00;96992.09;4930369;28;20046;-74
2022/03/06 02:05:03;;;;;;;15.30;6.97;;;;;;;-3.71;100.00;96991.56;4936426;29;20039;-73
2022/03/06 02:07:29;;;;;;;14.32;7.53;;;;;;;-3.69;100.00;96989.63;4951531;28;20043;-74
2022/03/06 02:09:56;;;;;;;14.80;6.63;;;;;;;-3.70;100.00;96994.03;4930052;28;20042;-74
2022/03/06 02:12:23;;;;;;;18.80;8.68;;;;;;;-3.68;100.00;96997.31;4952501;28;20067;-73
2022/03/06 02:14:53;;;;;;;17.63;8.00;;;;;;;-3.66;100.00;96992.78;4938445;28;20045;-75
2022/03/06 02:17:19;;;;;;;20.13;8.35;;;;;;;-3.66;100.00;96994.56;4936996;28;20125;-74
2022/03/06 02:20:03;;;;;;;16.73;7.32;;;;;;;-3.68;100.00;96999.94;4937298;28;20046;-75
2022/03/06 02:22:37;;;;;;;19.05;8.02;;;;;;;-3.71;100.00;96992.41;4953046;28;20059;-74
2022/03/06 02:25:08;;;;;;;19.30;7.80;;;;;;;-3.75;100.00;96998.06;4937058;28;20031;-74
2022/03/06 02:27:34;;;;;;;16.92;7.97;;;;;;;-3.77;100.00;97000.81;4937247;28;20090;-74
2022/03/06 02:30:02;;;;;;;17.35;7.68;;;;;;;-3.76;100.00;96999.03;4966640;28;20027;-74
2022/03/06 02:32:28;;;;;;;16.90;7.07;;;;;;;-3.74;100.00;97003.13;4966602;28;20043;-74
2022/03/06 02:34:54;;;;;;;23.27;7.43;;;;;;;-3.70;100.00;97007.13;4952721;28;20039;-74
2022/03/06 02:37:21;;;;;;;15.75;7.10;;;;;;;-3.53;100.00;97000.25;4936736;28;20074;-74
2022/03/06 02:39:47;;;;;;;20.25;7.75;;;;;;;-3.37;100.00;96997.81;4935348;28;20067;-74
2022/03/06 02:42:30;;;;;;;19.42;8.02;;;;;;;-3.19;100.00;97005.69;4968372;28;20103;-74
2022/03/06 02:44:58;;;;;;;18.83;7.80;;;;;;;-3.05;100.00;97003.50;4936350;28;20066;-73
2022/03/06 02:47:24;;;;;;;20.08;7.65;;;;;;;-3.01;100.00;96999.63;4936769;28;20031;-74
2022/03/06 02:49:52;;;;;;;17.88;7.43;;;;;;;-2.97;100.00;96996.53;4964583;28;20644;-74
2022/03/06 02:52:18;;;;;;;18.52;8.70;;;;;;;-2.93;100.00;96997.91;4930529;28;20043;-75
2022/03/06 02:54:45;;;;;;;17.45;7.07;;;;;;;-2.92;100.00;96996.09;4951428;28;20031;-75
2022/03/06 02:57:11;;;;;;;17.00;7.72;;;;;;;-2.87;100.00;96991.25;4967946;28;20036;-74
2022/03/06 02:59:37;;;;;;;15.13;7.60;;;;;;;-2.88;100.00;96997.44;4968946;28;20039;-74
2022/03/06 03:02:04;;;;;;;15.60;7.05;;;;;;;-2.89;100.00;96993.16;4934654;28;20036;-74
2022/03/06 03:04:31;;;;;;;15.80;7.30;;;;;;;-2.89;100.00;96998.41;4950890;28;20038;-73
2022/03/06 03:06:57;;;;;;;15.73;7.43;;;;;;;-2.89;100.00;96988.75;4968396;28;20064;-74
2022/03/06 03:09:24;;;;;;;22.10;7.97;;;;;;;-2.91;100.00;96993.31;4941174;28;20043;-75
2022/03/06 03:11:50;;;;;;;17.90;7.68;;;;;;;-2.95;100.00;96993.78;4943910;28;20035;-75
2022/03/06 03:14:16;;;;;;;21.67;7.47;;;;;;;-2.99;100.00;97000.28;4946956;28;20649;-75
2022/03/06 03:16:42;;;;;;;17.08;7.82;;;;;;;-2.98;100.00;96999.31;4978015;28;20027;-76
2022/03/06 03:19:08;;;;;;;13.82;6.82;;;;;;;-2.99;100.00;97002.91;4974137;28;20082;-75
2022/03/06 03:21:34;;;;;;;16.75;8.18;;;;;;;-2.95;100.00;97004.28;4977596;28;20054;-74
2022/03/06 03:23:59;;;;;;;17.02;7.90;;;;;;;-3.00;100.00;97003.88;4962648;28;20047;-76
2022/03/06 03:26:25;;;;;;;13.95;7.13;;;;;;;-3.05;100.00;96995.66;4944264;28;20077;-75
2022/03/06 03:28:51;;;;;;;17.60;7.10;;;;;;;-3.10;100.00;96999.56;4943734;28;20027;-75
2022/03/06 03:31:18;;;;;;;16.25;8.13;;;;;;;-3.08;100.00;97005.47;4944329;28;20079;-75
2022/03/06 03:33:43;;;;;;;17.90;7.40;;;;;;;-3.07;100.00;97006.28;4951905;28;20038;-76
2022/03/06 03:36:09;;;;;;;14.30;6.72;;;;;;;-3.08;100.00;97005.47;4943938;28;21524;-75
2022/03/06 03:38:35;;;;;;;16.95;7.07;;;;;;;-3.09;100.00;97014.28;4944399;28;21009;-75
2022/03/06 03:41:01;;;;;;;13.95;7.40;;;;;;;-3.15;100.00;97003.59;4944212;28;20030;-75
2022/03/06 03:43:28;;;;;;;16.08;7.35;;;;;;;-3.21;100.00;97007.63;4977075;28;20775;-75
2022/03/06 03:45:54;;;;;;;19.13;7.25;;;;;;;-3.27;100.00;96997.75;4943584;28;20067;-76
2022/03/06 03:48:19;;;;;;;15.43;6.90;;;;;;;-3.31;100.00;97012.09;4970740;28;20039;-75
2022/03/06 03:50:45;;;;;;;16.65;7.28;;;;;;;-3.34;100.00;97012.41;4932206;28;20039;-75
2022/03/06 03:53:10;;;;;;;16.35;7.07;;;;;;;-3.39;100.00;97012.84;4970730;28;20119;-76
2022/03/06 03:55:36;;;;;;;15.38;7.80;;;;;;;-3.42;100.00;97013.16;4970331;28;20038;-76
2022/03/06 03:58:02;;;;;;;14.23;7.20;;;;;;;-3.51;100.00;97019.25;4939070;28;20027;-76
2022/03/06 04:00:28;;;;;;;17.88;7.20;;;;;;;-3.49;100.00;97013.91;4939392;28;20043;-75
2022/03/06 04:02:53;;;;;;;20.30;7.78;;;;;;;-3.50;100.00;97020.94;4939342;28;20046;-75
2022/03/06 04:05:19;;;;;;;15.00;6.80;;;;;;;-3.51;100.00;97014.00;4939449;28;20150;-75
2022/03/06 04:07:44;;;;;;;16.77;7.50;;;;;;;-3.55;100.00;97017.09;4940570;28;20035;-75
2022/03/06 04:10:11;;;;;;;15.52;7.05;;;;;;;-3.65;100.00;97017.97;4969184;28;20093;-75
2022/03/06 04:12:36;;;;;;;18.88;8.07;;;;;;;-3.63;100.00;97019.63;4939677;28;20113;-75
2022/03/06 04:15:02;;;;;;;19.15;7.78;;;;;;;-3.69;100.00;97019.22;4939294;28;20031;-75
2022/03/06 04:17:28;;;;;;;16.73;7.65;;;;;;;-3.74;100.00;97015.38;4968266;28;20035;-74
2022/03/06 04:19:53;;;;;;;15.07;7.28;;;;;;;-3.68;100.00;97030.50;4938229;28;20035;-74
2022/03/06 04:22:18;;;;;;;15.82;7.45;;;;;;;-3.67;100.00;97032.97;4954060;28;20056;-74
2022/03/06 04:24:44;;;;;;;17.52;7.25;;;;;;;-3.63;100.00;97032.69;4934045;28;20122;-74
2022/03/06 04:27:09;;;;;;;16.20;7.85;;;;;;;-3.63;100.00;97030.91;4970294;28;20118;-74
2022/03/06 04:29:35;;;;;;;17.73;8.40;;;;;;;-3.61;100.00;97033.38;4938884;28;20027;-74
2022/03/06 04:32:00;;;;;;;20.80;8.75;;;;;;;-3.60;100.00;97030.59;4938654;28;20115;-74
2022/03/06 04:34:26;;;;;;;20.20;8.57;;;;;;;-3.60;100.00;97038.44;4940684;28;20098;-74
2022/03/06 04:36:51;;;;;;;18.90;9.15;;;;;;;-3.61;100.00;97038.59;4940743;28;20035;-73
2022/03/06 04:39:17;;;;;;;18.50;8.27;;;;;;;-3.62;100.00;97037.78;4936965;28;20110;-74
2022/03/06 04:41:42;;;;;;;22.77;8.55;;;;;;;-3.62;100.00;97039.56;4953315;28;20830;-74
2022/03/06 04:44:08;;;;;;;16.80;8.30;;;;;;;-3.65;100.00;97044.13;4952629;28;20106;-73
2022/03/06 04:46:33;;;;;;;17.15;7.68;;;;;;;-3.66;100.00;97037.25;4939688;28;20507;-74
2022/03/06 04:48:59;;;;;;;17.77;8.25;;;;;;;-3.66;100.00;97046.88;4969706;28;20036;-74
2022/03/06 04:51:25;;;;;;;19.85;9.00;;;;;;;-3.66;100.00;97044.25;4936759;28;20591;-74
2022/03/06 04:53:50;;;;;;;18.75;8.13;;;;;;;-3.68;100.00;97057.50;4937450;28;20218;-74
2022/03/06 04:56:16;;;;;;;18.60;8.52;;;;;;;-3.69;100.00;97053.22;4938090;28;20837;-73
2022/03/06 04:58:41;;;;;;;18.35;8.80;;;;;;;-3.69;100.00;97053.22;4937814;28;20039;-73
2022/03/06 05:01:07;;;;;;;23.25;9.38;;;;;;;-3.72;100.00;97053.53;4938196;28;20102;-73
2022/03/06 05:03:33;;;;;;;24.25;9.18;;;;;;;-3.73;100.00;97056.28;4939002;28;20083;-74
2022/03/06 05:05:58;;;;;;;15.55;8.13;;;;;;;-3.75;100.00;97061.66;4951715;28;20059;-74
2022/03/06 05:08:26;;;;;;;18.35;8.30;;;;;;;-3.73;100.00;97067.59;4968506;28;20787;-74
2022/03/06 05:10:53;;;;;;;18.92;8.40;;;;;;;-3.72;100.00;97068.41;4951660;28;20066;-73
2022/03/06 05:13:20;;;;;;;19.27;8.93;;;;;;;-3.69;100.00;97068.94;4969267;28;20063;-73
2022/03/06 05:15:45;;;;;;;21.50;9.52;;;;;;;-3.69;100.00;97070.72;4938678;28;20050;-73
2022/03/06 05:18:11;;;;;;;22.55;9.32;;;;;;;-3.69;100.00;97058.47;4950167;28;20031;-74
2022/03/06 05:20:38;;;;;;;16.80;8.18;;;;;;;-3.64;100.00;97060.66;4969469;28;20023;-74
2022/03/06 05:23:03;;;;;;;19.48;8.98;;;;;;;-3.57;100.00;97060.91;4936570;28;20788;-73
2022/03/06 05:25:29;;;;;;;19.10;9.00;;;;;;;-3.51;100.00;97058.50;4938921;28;20047;-73
2022/03/06 05:27:55;;;;;;;18.88;8.90;;;;;;;-3.39;100.00;97061.75;4937523;28;20223;-74
2022/03/06 05:30:21;;;;;;;17.42;8.85;;;;;;;-3.28;100.00;97058.09;4935872;28;20130;-73
2022/03/06 05:32:47;;;;;;;20.70;9.23;;;;;;;-3.19;100.00;97063.28;4936795;28;20821;-73
2022/03/06 05:35:12;;;;;;;21.42;9.35;;;;;;;-3.09;100.00;97064.03;4952320;28;20398;-74
2022/03/06 05:37:38;;;;;;;18.70;8.13;;;;;;;-3.04;100.00;97068.00;4967784;28;20093;-74
2022/03/06 05:40:05;;;;;;;18.95;8.77;;;;;;;-2.97;100.00;97067.25;4936905;28;20201;-74
2022/03/06 05:42:31;;;;;;;17.48;8.43;;;;;;;-2.87;100.00;97069.81;4938799;28;20198;-74
2022/03/06 05:44:57;;;;;;;26.83;8.50;;;;;;;-2.80;100.00;97078.72;4951291;28;20039;-74
2022/03/06 05:47:22;;;;;;;21.70;9.77;;;;;;;-2.77;100.00;97067.13;4965909;28;20031;-74
2022/03/06 05:49:48;;;;;;;20.25;9.45;;;;;;;-2.73;100.00;97071.06;4938415;28;20533;-74
2022/03/06 05:52:13;;;;;;;20.40;9.05;;;;;;;-2.82;100.00;97076.22;4936012;28;20070;-74
2022/03/06 05:54:39;;;;;;;21.80;9.07;;;;;;;-2.80;100.00;97076.09;4968633;28;20285;-73
2022/03/06 05:57:05;;;;;;;23.27;10.52;;;;;;;-2.85;100.00;97075.72;4949052;28;20024;-74
2022/03/06 05:59:30;;;;;;;21.90;8.55;;;;;;;-2.84;100.00;97085.22;4948930;28;20731;-75
2022/03/06 06:01:56;;;;;;;20.90;10.38;;;;;;;-2.89;100.00;97082.22;4936505;28;20044;-75
2022/03/06 06:04:21;;;;;;;20.50;8.77;;;;;;;-2.95;100.00;97088.91;4950736;28;20050;-75
2022/03/06 06:06:47;;;;;;;17.15;8.43;;;;;;;-2.94;100.00;97087.09;4950778;28;20554;-75
2022/03/06 06:09:12;;;;;;;19.48;8.57;;;;;;;-2.93;100.00;97091.38;4937424;28;20031;-74
2022/03/06 06:11:38;;;;;;;19.02;8.68;;;;;;;-2.94;100.00;97089.72;4938308;28;20043;-74
2022/03/06 06:14:04;;;;;;;14.15;6.72;;;;;;;-2.94;100.00;97092.34;4949296;28;20035;-75
2022/03/06 06:16:32;;;;;;;17.80;8.80;;;;;;;-2.92;100.00;97093.00;4938194;28;20975;-75
2022/03/06 06:18:58;;;;;;;17.08;8.85;;;;;;;-2.89;100.00;97095.31;4936280;28;20090;-77
2022/03/06 06:21:23;;;;;;;21.33;8.98;;;;;;;-2.85;100.00;97099.31;4968948;28;20853;-76
2022/03/06 06:23:49;;;;;;;18.20;8.75;;;;;;;-2.79;100.00;97088.22;4939024;28;20051;-76
2022/03/06 06:26:15;;;;;;;17.13;8.88;;;;;;;-2.78;100.00;97094.28;4937164;28;20559;-76
2022/03/06 06:28:41;;;;;;;44.20;15.32;;;;;;;-2.77;100.00;97102.00;4969812;28;20046;-76
2022/03/06 06:31:07;;;;;;;19.10;10.18;;;;;;;-2.73;100.00;97098.09;4966724;28;20035;-76
2022/03/06 06:33:34;;;;;;;18.30;9.35;;;;;;;-2.75;100.00;97101.84;4953181;28;20042;-77
2022/03/06 06:36:01;;;;;;;16.65;7.50;;;;;;;-2.73;100.00;97103.31;4938031;28;20023;-76
2022/03/06 06:38:27;;;;;;;19.92;8.98;;;;;;;-2.66;100.00;97103.56;4937942;28;20676;-77
2022/03/06 06:40:53;;;;;;;18.05;9.65;;;;;;;-2.59;100.00;97104.59;4936735;28;20095;-76
2022/03/06 06:43:20;;;;;;;25.08;8.93;;;;;;;-2.56;100.00;97105.13;4941055;28;20039;-77
2022/03/06 06:45:46;;;;;;;24.95;10.55;;;;;;;-2.47;100.00;97113.91;4941827;28;20116;-76
2022/03/06 06:48:11;;;;;;;17.42;9.95;;;;;;;-2.42;100.00;97111.63;4939280;28;20598;-76
2022/03/06 06:50:37;;;;;;;20.58;9.95;;;;;;;-2.42;100.00;97110.81;4937889;28;20050;-76
2022/03/06 06:53:03;;;;;;;20.58;8.90;;;;;;;-2.34;100.00;97116.09;4955841;28;20039;-79
2022/03/06 06:55:28;;;;;;;22.02;9.23;;;;;;;-2.21;100.00;97113.09;4943732;28;20035;-79
2022/03/06 06:57:54;;;;;;;20.42;9.20;;;;;;;-2.08;100.00;97122.22;4943495;28;20085;-80
2022/03/06 07:00:20;;;;;;;16.52;7.97;;;;;;;-2.02;100.00;97119.00;4974398;28;20047;-81
2022/03/06 07:02:46;;;;;;;21.70;9.38;;;;;;;-2.00;100.00;97116.22;4944421;28;20047;-79
2022/03/06 07:05:12;;;;;;;21.35;9.57;;;;;;;-1.96;100.00;97128.84;4957398;28;20047;-80
2022/03/06 07:07:37;;;;;;;21.85;10.55;;;;;;;-1.90;100.00;97126.59;4973930;28;20114;-81
2022/03/06 07:10:07;;;;;;;20.83;9.50;;;;;;;-1.81;100.00;97126.50;4937031;28;20703;-78
2022/03/06 07:12:47;;;;;;;20.45;10.40;;;;;;;-1.66;100.00;97136.41;4939931;28;20039;-78
2022/03/06 07:15:14;;;;;;;20.38;10.00;;;;;;;-1.52;100.00;97130.59;4958444;28;20067;-80
2022/03/06 07:17:40;;;;;;;17.58;8.90;;;;;;;-1.42;100.00;97131.28;4940915;28;20762;-80
2022/03/06 07:20:07;;;;;;;20.77;9.35;;;;;;;-1.28;100.00;97138.59;4973593;28;20098;-80
2022/03/06 07:22:33;;;;;;;23.52;10.20;;;;;;;-1.04;100.00;97137.84;4935561;28;20125;-80
2022/03/06 07:24:59;;;;;;;19.55;9.32;;;;;;;-0.86;100.00;97137.72;4942464;28;20673;-80
2022/03/06 07:27:24;;;;;;;19.55;8.60;;;;;;;-0.71;100.00;97148.44;4959438;28;20027;-80
2022/03/06 07:29:50;;;;;;;18.83;8.45;;;;;;;-0.58;100.00;97139.13;4940120;28;20049;-80
2022/03/06 07:32:16;;;;;;;21.65;9.23;;;;;;;-0.44;100.00;97136.84;4943297;28;20031;-80
2022/03/06 07:34:41;;;;;;;22.00;9.35;;;;;;;-0.38;100.00;97144.91;4958184;28;20039;-80
2022/03/06 07:37:07;;;;;;;18.85;8.43;;;;;;;-0.31;100.00;97143.25;4958257;28;20046;-80
2022/03/06 07:39:32;;;;;;;21.58;8.93;;;;;;;-0.21;100.00;97148.34;4973340;28;20767;-80
2022/03/06 07:41:58;;;;;;;20.27;8.05;;;;;;;-0.10;100.00;97141.94;4974243;28;20031;-81
2022/03/06 07:44:23;;;;;;;16.35;8.10;;;;;;;0.09;100.00;97144.25;4975674;28;20096;-80
2022/03/06 07:46:49;;;;;;;16.73;8.60;;;;;;;0.23;100.00;97143.56;4973420;28;20511;-80
2022/03/06 07:49:14;;;;;;;22.90;9.30;;;;;;;0.36;100.00;97148.31;4943347;28;20447;-80
2022/03/06 07:51:40;;;;;;;19.75;9.57;;;;;;;0.42;100.00;97152.09;4972106;28;20031;-79
2022/03/06 07:54:07;;;;;;;16.98;8.30;;;;;;;0.42;100.00;97154.72;4971525;28;20120;-79
2022/03/06 07:56:33;;;;;;;20.45;9.30;;;;;;;0.52;100.00;97152.72;4942977;28;20043;-79
2022/03/06 07:58:59;;;;;;;19.83;9.63;;;;;;;0.65;100.00;97157.47;4971559;28;20629;-79
2022/03/06 08:01:24;;;;;;;17.77;8.27;;;;;;;0.79;100.00;97151.50;4971844;28;20039;-79
2022/03/06 08:03:50;;;;;;;19.08;9.02;;;;;;;0.89;100.00;97152.09;4971454;28;20042;-79
2022/03/06 08:06:15;;;;;;;17.95;8.80;;;;;;;0.92;100.00;97151.75;4974192;28;20043;-79
2022/03/06 08:08:41;;;;;;;20.08;9.40;;;;;;;1.04;100.00;97155.66;4941861;28;20130;-79
2022/03/06 08:11:07;;;;;;;18.52;8.65;;;;;;;1.24;100.00;97161.31;4972880;28;20127;-79
2022/03/06 08:13:32;;;;;;;16.92;8.68;;;;;;;1.31;100.00;97159.63;4943683;28;20856;-79
2022/03/06 08:15:58;;;;;;;16.65;8.50;;;;;;;1.43;100.00;97161.91;4958040;28;20694;-79
2022/03/06 08:18:23;;;;;;;17.60;8.50;;;;;;;1.40;100.00;97165.69;4936205;28;20027;-79
2022/03/06 08:20:49;;;;;;;17.83;8.88;;;;;;;1.50;100.00;97158.41;4934158;28;20686;-79
2022/03/06 08:23:14;;;;;;;16.45;8.75;;;;;;;1.71;97.81;97147.19;4944926;28;20027;-79
2022/03/06 08:25:40;;;;;;;20.52;10.32;;;;;;;1.82;97.50;97162.63;4974385;28;20046;-79
2022/03/06 08:28:05;;;;;;;18.48;8.48;;;;;;;1.72;97.86;97154.13;4265527;28;9999772;-79
2022/03/06 08:30:31;;;;;;;31.08;12.35;;;;;;;1.74;96.29;97160.06;4954839;28;20050;-79
2022/03/06 08:32:56;;;;;;;28.83;13.35;;;;;;;1.68;97.00;97156.28;4936787;28;20063;-79
2022/03/06 08:35:22;;;;;;;21.13;10.77;;;;;;;1.80;96.42;97162.00;4931653;28;20027;-79
2022/03/06 08:37:47;;;;;;;28.40;12.25;;;;;;;1.82;95.29;97160.00;4938503;28;20027;-79
2022/03/06 08:40:13;;;;;;;21.90;10.20;;;;;;;1.78;94.87;97158.69;4952566;28;20086;-79
2022/03/06 08:42:38;;;;;;;14.38;7.50;;;;;;;1.75;91.42;97145.84;4938325;28;20713;-79
2022/03/06 08:45:04;;;;;;;18.75;9.02;;;;;;;1.82;90.54;97167.91;4972186;28;20023;-79
2022/03/06 08:47:30;;;;;;;16.75;8.90;;;;;;;1.78;90.07;97166.59;4953106;28;20067;-79
2022/03/06 08:49:55;;;;;;;19.50;9.77;;;;;;;1.84;91.50;97168.53;4940691;28;20088;-79
2022/03/06 08:52:21;;;;;;;19.27;9.10;;;;;;;1.78;88.31;97165.78;4939411;28;20031;-79
2022/03/06 08:54:46;;;;;;;16.13;8.05;;;;;;;1.94;87.76;97163.84;4955645;28;20112;-79
2022/03/06 08:57:12;;;;;;;16.02;8.10;;;;;;;2.22;84.41;97171.22;4970422;28;20042;-79
2022/03/06 08:59:37;;;;;;;17.27;8.05;;;;;;;2.26;84.74;97167.25;4937638;28;20051;-79
2022/03/06 09:02:03;;;;;;;17.45;8.77;;;;;;;2.47;83.55;97162.06;4953614;28;20503;-79
2022/03/06 09:04:31;;;;;;;14.88;7.82;;;;;;;2.65;81.78;97171.50;4939657;28;20035;-79
2022/03/06 09:06:57;;;;;;;17.38;8.60;;;;;;;2.60;79.85;97163.28;4953761;28;20036;-79
2022/03/06 09:09:22;;;;;;;16.60;8.05;;;;;;;2.60;75.48;97160.63;4969670;28;20788;-79
2022/03/06 09:11:48;;;;;;;20.48;8.48;;;;;;;2.60;80.60;97165.91;4933726;28;20092;-79
2022/03/06 09:14:13;;;;;;;15.48;8.48;;;;;;;2.48;76.07;97163.69;4939880;28;20567;-79
2022/03/06 09:16:39;;;;;;;18.35;8.57;;;;;;;2.57;76.90;97167.09;4970266;28;20058;-79
2022/03/06 09:19:04;;;;;;;17.80;8.27;;;;;;;2.81;78.18;97165.22;4969138;28;20038;-79
2022/03/06 09:21:30;;;;;;;15.82;8.27;;;;;;;2.91;69.42;97173.66;4941607;28;20058;-79
2022/03/06 09:23:55;;;;;;;14.23;7.63;;;;;;;3.22;71.59;97168.19;4942442;28;20208;-79
2022/03/06 09:26:21;;;;;;;12.82;7.38;;;;;;;3.36;64.62;97167.34;4940926;28;20043;-79
2022/03/06 09:28:47;;;;;;;15.45;7.85;;;;;;;3.45;63.54;97163.56;4940835;28;20050;-79
2022/03/06 09:31:12;;;;;;;15.68;7.85;;;;;;;3.59;65.16;97170.66;4955425;28;20372;-78
2022/03/06 09:33:38;;;;;;;15.25;8.00;;;;;;;3.75;60.22;97163.50;4970844;28;20420;-79
2022/03/06 09:36:04;;;;;;;16.92;8.80;;;;;;;3.68;59.77;97165.25;4942181;28;20640;-79
2022/03/06 09:38:29;;;;;;;9.85;5.22;;;;;;;3.67;56.19;97168.91;4941765;28;20614;-79
2022/03/06 09:41:00;;;;;;;13.18;7.82;;;;;;;3.51;54.45;97168.13;4971043;28;20537;-79
2022/03/06 09:43:26;;;;;;;12.73;7.38;;;;;;;3.15;58.22;97176.03;4956415;28;20031;-79
2022/03/06 09:46:06;;;;;;;15.13;7.20;;;;;;;3.17;56.13;97175.84;4940945;29;20038;-79
2022/03/06 09:48:31;;;;;;;12.65;6.82;;;;;;;3.36;58.89;97172.63;4987797;28;20043;-79
2022/03/06 09:50:57;;;;;;;15.13;7.90;;;;;;;3.74;54.38;97175.91;4955307;28;20035;-79
2022/03/06 09:53:23;;;;;;;11.15;6.40;;;;;;;4.14;52.79;97174.44;4941852;28;20510;-79
2022/03/06 09:55:49;;;;;;;15.57;7.00;;;;;;;4.22;52.47;97184.09;4973070;28;20050;-79
2022/03/06 09:58:15;;;;;;;11.90;7.45;;;;;;;4.26;56.90;97172.09;4931823;28;20035;-79
2022/03/06 10:00:41;;;;;;;13.10;7.18;;;;;;;4.72;50.92;97182.22;4940846;28;20046;-79
2022/03/06 10:03:07;;;;;;;9.70;5.93;;;;;;;5.19;48.42;97167.41;4940188;28;20051;-78
2022/03/06 10:05:37;;;;;;;12.43;7.15;;;;;;;5.80;44.86;97170.88;4972125;28;20077;-79
2022/03/06 10:08:21;;;;;;;11.43;5.55;;;;;;;5.76;46.22;97180.28;4955629;28;20070;-77
2022/03/06 10:10:52;;;;;;;13.80;6.78;;;;;;;5.63;43.74;97172.28;4971998;28;20078;-78
2022/03/06 10:13:28;;;;;;;9.80;5.55;;;;;;;5.19;44.39;97172.69;4939555;28;20523;-78
2022/03/06 10:16:17;;;;;;;13.43;6.88;;;;;;;5.19;45.08;97172.69;4984074;28;20850;-78
2022/03/06 10:18:50;;;;;;;13.25;7.40;;;;;;;5.55;46.88;97177.75;4945395;28;20046;-78
2022/03/06 10:21:15;;;;;;;17.95;7.07;;;;;;;5.79;44.22;97176.41;4944069;28;20146;-78
2022/03/06 10:23:41;;;;;;;9.20;5.03;;;;;;;8.28;38.78;97159.22;4945407;28;20039;-80
2022/03/06 10:26:09;;;;;;;13.98;6.97;;;;;;;8.61;38.51;97159.00;4976347;28;20151;-79
2022/03/06 10:29:05;;;;;;;7.93;4.72;;;;;;;10.05;33.14;97146.84;4980252;28;20027;-79
2022/03/06 10:31:33;;;;;;;10.90;6.90;;;;;;;11.93;32.08;97155.63;4960210;28;20256;-78
2022/03/06 10:34:12;;;;;;;13.93;7.25;;;;;;;12.67;29.56;97144.78;4975792;28;20042;-80
2022/03/06 10:36:52;;;;;;;13.27;5.90;;;;;;;12.07;29.08;97149.97;4961793;28;20038;-79
2022/03/06 10:39:22;;;;;;;14.67;7.47;;;;;;;12.69;28.91;97158.81;4938334;28;20685;-79
2022/03/06 10:41:50;;;;;;;10.80;6.60;;;;;;;13.31;27.90;97153.28;4976294;28;20160;-77
2022/03/06 10:44:18;;;;;;;11.63;6.45;;;;;;;15.28;27.89;97150.03;4946504;28;20047;-80
2022/03/06 10:47:01;;;;;;;11.95;6.80;;;;;;;17.53;23.12;97143.00;4976962;28;20062;-79
2022/03/06 10:49:26;;;;;;;10.93;6.40;;;;;;;17.86;24.38;97138.00;4978686;28;20093;-79
2022/03/06 10:51:52;;;;;;;13.02;7.03;;;;;;;16.84;23.28;97141.78;4976548;28;20031;-79
2022/03/06 10:54:19;;;;;;;9.95;5.00;;;;;;;17.02;22.38;97140.41;4925716;29;20059;-79
2022/03/06 10:56:49;;;;;;;12.40;7.30;;;;;;;18.41;23.84;97136.03;4946552;28;20019;-79
2022/03/06 10:59:24;;;;;;;11.40;6.80;;;;;;;19.42;21.86;97129.72;4994012;28;20074;-79
2022/03/06 11:01:50;;;;;;;15.15;7.70;;;;;;;20.29;22.06;97128.59;4946834;28;20718;-79
2022/03/06 11:04:20;;;;;;;11.55;7.07;;;;;;;21.50;21.02;97124.16;4960961;28;20043;-79
2022/03/06 11:06:47;;;;;;;10.35;6.25;;;;;;;20.34;19.59;97127.72;4978469;28;20047;-79
2022/03/06 11:09:15;;;;;;;11.90;7.22;;;;;;;20.27;19.80;97133.53;4978389;28;20027;-79
2022/03/06 11:11:42;;;;;;;11.13;6.88;;;;;;;17.39;22.42;97133.84;4948063;28;20486;-79
2022/03/06 11:14:08;;;;;;;12.88;7.68;;;;;;;14.06;25.04;97145.53;4977729;28;20162;-79
2022/03/06 11:16:39;;;;;;;12.95;7.95;;;;;;;13.96;24.42;97140.88;4947150;28;20453;-79
2022/03/06 11:19:06;;;;;;;11.45;6.63;;;;;;;11.48;27.96;97146.66;4978405;28;20114;-79